createdAt,value
2022-11-01T00:01:27.793Z,95715.22
2022-11-01T00:03:54.857Z,95722.16
2022-11-01T00:06:22.081Z,95722.94
2022-11-01T00:08:48.802Z,95715.47
2022-11-01T00:11:16.511Z,95719.69
2022-11-01T00:13:47.338Z,95715.97
2022-11-01T00:16:14.532Z,95713.56
2022-11-01T00:18:41.384Z,95722.91
2022-11-01T00:21:08.819Z,95716.66
2022-11-01T00:23:36.275Z,95722.25
2022-11-01T00:26:03.455Z,95720.63
2022-11-01T00:28:30.961Z,95718.53
2022-11-01T00:30:57.787Z,95721.16
2022-11-01T00:33:25.182Z,95721.63
2022-11-01T00:35:52.379Z,95723.19
2022-11-01T00:38:19.206Z,95717.25
2022-11-01T00:40:45.903Z,95719.94
2022-11-01T00:43:13.120Z,95715.06
2022-11-01T00:45:39.963Z,95721.00
2022-11-01T00:48:07.081Z,95711.84
2022-11-01T00:50:33.853Z,95714.75
2022-11-01T00:53:00.533Z,95720.94
2022-11-01T00:55:27.226Z,95717.34
2022-11-01T00:57:54.217Z,95730.53
2022-11-01T01:00:21.008Z,95720.28
2022-11-01T01:02:47.864Z,95719.72
2022-11-01T01:05:14.556Z,95718.84
2022-11-01T01:07:41.353Z,95719.56
2022-11-01T01:10:08.690Z,95718.03
2022-11-01T01:12:35.497Z,95718.28
2022-11-01T01:15:02.267Z,95717.13
2022-11-01T01:17:32.808Z,95721.91
2022-11-01T01:20:00.878Z,95726.41
2022-11-01T01:22:28.767Z,95725.25
2022-11-01T01:24:57.439Z,95718.84
2022-11-01T01:27:24.181Z,95717.69
2022-11-01T01:29:51.505Z,95722.25
2022-11-01T01:32:19.842Z,95723.00
2022-11-01T01:34:46.540Z,95724.06
2022-11-01T01:37:15.361Z,95726.16
2022-11-01T01:39:42.733Z,95728.84
2022-11-01T01:42:32.773Z,95720.22
2022-11-01T01:44:59.543Z,95730.25
2022-11-01T01:47:34.239Z,95720.28
2022-11-01T01:50:01.067Z,95727.19
2022-11-01T01:52:30.936Z,95732.88
2022-11-01T01:54:59.127Z,95729.03
2022-11-01T01:57:26.348Z,95727.41
2022-11-01T01:59:53.197Z,95734.06
2022-11-01T02:02:21.530Z,95730.34
2022-11-01T02:04:50.890Z,95729.44
2022-11-01T02:07:17.583Z,95727.25
2022-11-01T02:09:44.642Z,95727.97
2022-11-01T02:12:12.323Z,95732.50
2022-11-01T02:14:42.272Z,95730.34
2022-11-01T02:17:39.802Z,95738.59
2022-11-01T02:20:09.776Z,95736.16
2022-11-01T02:22:45.405Z,95731.84
2022-11-01T02:25:31.086Z,95734.63
2022-11-01T02:28:01.360Z,95736.06
2022-11-01T02:30:36.544Z,95735.50
2022-11-01T02:33:09.509Z,95736.69
2022-11-01T02:35:43.432Z,95740.78
2022-11-01T02:38:16.138Z,95740.44
2022-11-01T02:40:52.249Z,95743.69
2022-11-01T02:43:20.901Z,95748.69
2022-11-01T02:45:49.634Z,95757.53
2022-11-01T02:48:19.561Z,95761.50
2022-11-01T02:50:49.077Z,95755.56
2022-11-01T02:53:15.748Z,95759.31
2022-11-01T02:58:12.425Z,95760.38
2022-11-01T03:00:39.518Z,95760.63
2022-11-01T03:03:09.458Z,95760.50
2022-11-01T03:05:36.181Z,95760.84
2022-11-01T03:08:08.367Z,95759.22
2022-11-01T03:10:41.387Z,95771.44
2022-11-01T03:13:08.043Z,95765.53
2022-11-01T03:15:40.137Z,95780.19
2022-11-01T03:18:17.327Z,95768.94
2022-11-01T03:21:15.798Z,95770.44
2022-11-01T03:23:56.801Z,95777.91
2022-11-01T03:26:27.147Z,95767.66
2022-11-01T03:28:56.979Z,95782.31
2022-11-01T03:31:28.283Z,95776.50
2022-11-01T03:33:57.787Z,95774.56
2022-11-01T03:36:27.861Z,95774.69
2022-11-01T03:38:57.733Z,95779.44
2022-11-01T03:41:26.408Z,95769.78
2022-11-01T03:43:54.264Z,95769.78
2022-11-01T03:46:22.429Z,95772.47
2022-11-01T03:48:49.068Z,95773.50
2022-11-01T03:51:15.801Z,95771.34
2022-11-01T03:53:42.465Z,95782.50
2022-11-01T03:56:09.817Z,95777.16
2022-11-01T03:58:42.684Z,95778.19
2022-11-01T04:01:10.149Z,95779.25
2022-11-01T04:03:37.061Z,95777.84
2022-11-01T04:06:04.404Z,95775.63
2022-11-01T04:08:31.589Z,95776.44
2022-11-01T04:10:58.475Z,95779.34
2022-11-01T04:13:25.416Z,95773.69
2022-11-01T04:16:10.860Z,95773.09
2022-11-01T04:18:56.516Z,95773.56
2022-11-01T04:21:24.814Z,95775.06
2022-11-01T04:23:52.082Z,95771.81
2022-11-01T04:26:19.961Z,95772.88
2022-11-01T04:28:57.280Z,95774.16
2022-11-01T04:31:24.791Z,95777.41
2022-11-01T04:33:51.710Z,95770.66
2022-11-01T04:36:18.635Z,95781.59
2022-11-01T04:41:32.769Z,95776.13
2022-11-01T04:43:59.674Z,95783.91
2022-11-01T04:46:29.232Z,95781.13
2022-11-01T04:48:56.069Z,95777.84
2022-11-01T04:51:22.753Z,95781.34
2022-11-01T04:53:49.601Z,95779.50
2022-11-01T04:56:17.060Z,95784.38
2022-11-01T04:58:46.089Z,95788.44
2022-11-01T05:01:14.461Z,95781.69
2022-11-01T05:03:41.763Z,95785.41
2022-11-01T05:06:08.551Z,95786.22
2022-11-01T05:08:35.329Z,95791.34
2022-11-01T05:11:02.057Z,95801.44
2022-11-01T05:13:28.954Z,95800.03
2022-11-01T05:18:42.831Z,95796.31
2022-11-01T05:21:09.534Z,95813.41
2022-11-01T05:23:36.393Z,95809.13
2022-11-01T05:26:03.067Z,95810.19
2022-11-01T05:28:29.825Z,95809.13
2022-11-01T05:30:57.910Z,95811.00
2022-11-01T05:33:24.745Z,95813.41
2022-11-01T05:35:51.991Z,95814.72
2022-11-01T05:38:18.686Z,95819.25
2022-11-01T05:40:47.587Z,95816.56
2022-11-01T05:43:15.223Z,95824.59
2022-11-01T05:45:42.117Z,95820.97
2022-11-01T05:48:09.296Z,95823.53
2022-11-01T05:50:36.378Z,95831.56
2022-11-01T05:53:06.586Z,95829.22
2022-11-01T05:55:33.391Z,95827.38
2022-11-01T05:58:00.191Z,95829.22
2022-11-01T06:00:27.062Z,95834.78
2022-11-01T06:02:53.896Z,95837.25
2022-11-01T06:05:20.818Z,95834.78
2022-11-01T06:07:47.593Z,95836.44
2022-11-01T06:10:14.392Z,95846.06
2022-11-01T06:12:41.990Z,95843.19
2022-11-01T06:15:09.102Z,95844.56
2022-11-01T06:17:35.771Z,95845.41
2022-11-01T06:20:02.614Z,95848.66
2022-11-01T06:22:29.536Z,95847.03
2022-11-01T06:24:56.220Z,95849.47
2022-11-01T06:27:22.940Z,95845.53
2022-11-01T06:29:49.773Z,95848.19
2022-11-01T06:32:16.453Z,95849.38
2022-11-01T06:34:44.960Z,95848.09
2022-11-01T06:37:12.034Z,95849.84
2022-11-01T06:39:38.854Z,95852.06
2022-11-01T06:42:05.693Z,95858.81
2022-11-01T06:44:32.633Z,95857.31
2022-11-01T06:46:59.534Z,95851.28
2022-11-01T06:49:26.412Z,95858.56
2022-11-01T06:51:53.347Z,95850.09
2022-11-01T06:54:20.224Z,95857.06
2022-11-01T06:56:47.869Z,95856.84
2022-11-01T06:59:16.478Z,95858.78
2022-11-01T07:01:44.183Z,95857.75
2022-11-01T07:06:38.108Z,95852.53
2022-11-01T07:09:05.491Z,95841.72
2022-11-01T07:11:33.447Z,95845.75
2022-11-01T07:14:00.250Z,95852.50
2022-11-01T07:16:27.364Z,95852.19
2022-11-01T07:18:54.081Z,95851.69
2022-11-01T07:21:21.209Z,95848.31
2022-11-01T07:23:47.948Z,95853.28
2022-11-01T07:26:14.724Z,95854.09
2022-11-01T07:28:41.659Z,95856.31
2022-11-01T07:31:08.339Z,95855.63
2022-11-01T07:33:36.293Z,95847.94
2022-11-01T07:36:03.973Z,95851.97
2022-11-01T07:38:30.932Z,95844.06
2022-11-01T07:40:57.838Z,95844.16
2022-11-01T07:43:24.497Z,95852.06
2022-11-01T07:45:51.611Z,95846.56
2022-11-01T07:48:19.144Z,95846.88
2022-11-01T07:50:46.216Z,95851.78
2022-11-01T07:53:14.353Z,95842.31
2022-11-01T07:55:41.795Z,95843.69
2022-11-01T07:58:09.188Z,95842.75
2022-11-01T08:03:09.387Z,95839.78
2022-11-01T08:05:36.620Z,95835.00
2022-11-01T08:08:03.869Z,95832.91
2022-11-01T08:10:31.368Z,95834.59
2022-11-01T08:13:01.724Z,95832.84
2022-11-01T08:15:28.725Z,95830.78
2022-11-01T08:17:57.021Z,95829.84
2022-11-01T08:20:24.403Z,95827.78
2022-11-01T08:22:51.849Z,95829.50
2022-11-01T08:25:19.233Z,95822.84
2022-11-01T08:27:46.159Z,95826.19
2022-11-01T08:30:13.608Z,95816.91
2022-11-01T08:32:40.314Z,95820.47
2022-11-01T08:35:07.548Z,95811.94
2022-11-01T08:37:34.237Z,95813.63
2022-11-01T08:40:00.958Z,95811.03
2022-11-01T08:42:27.736Z,95808.41
2022-11-01T08:44:54.477Z,95800.44
2022-11-01T08:47:21.266Z,95806.38
2022-11-01T08:49:48.046Z,95803.75
2022-11-01T08:52:14.965Z,95812.75
2022-11-01T08:54:41.621Z,95815.31
2022-11-01T08:57:08.662Z,95815.75
2022-11-01T08:59:35.410Z,95803.50
2022-11-01T09:02:02.360Z,95794.16
2022-11-01T09:04:29.095Z,95790.75
2022-11-01T09:06:55.936Z,95791.63
2022-11-01T09:09:22.868Z,95785.72
2022-11-01T09:11:49.933Z,95786.84
2022-11-01T09:14:17.187Z,95787.16
2022-11-01T09:16:43.886Z,95781.06
2022-11-01T09:19:10.997Z,95786.50
2022-11-01T09:21:37.732Z,95783.34
2022-11-01T09:24:04.437Z,95783.72
2022-11-01T09:26:31.122Z,95779.75
2022-11-01T09:28:58.770Z,95779.81
2022-11-01T09:31:26.221Z,95779.03
2022-11-01T09:33:57.137Z,95774.81
2022-11-01T09:36:24.905Z,95769.47
2022-11-01T09:38:51.826Z,95772.78
2022-11-01T09:41:38.871Z,95767.97
2022-11-01T09:44:06.613Z,95767.19
2022-11-01T09:46:52.139Z,95764.28
2022-11-01T09:49:25.519Z,95758.19
2022-11-01T09:51:52.675Z,95751.75
2022-11-01T09:54:20.600Z,95750.47
2022-11-01T09:56:52.854Z,95746.19
2022-11-01T09:59:19.847Z,95745.44
2022-11-01T10:02:05.952Z,95743.34
2022-11-01T10:04:36.337Z,95743.91
2022-11-01T10:07:14.004Z,95743.16
2022-11-01T10:10:04.002Z,95736.41
2022-11-01T10:12:34.127Z,95727.31
2022-11-01T10:15:19.641Z,95728.38
2022-11-01T10:17:52.440Z,95723.78
2022-11-01T10:20:32.875Z,95715.44
2022-11-01T10:23:01.581Z,95716.25
2022-11-01T10:25:33.011Z,95711.69
2022-11-01T10:28:10.601Z,95711.69
2022-11-01T10:30:40.076Z,95715.50
2022-11-01T10:33:13.004Z,95704.72
2022-11-01T10:36:00.026Z,95710.94
2022-11-01T10:38:49.979Z,95704.22
2022-11-01T10:41:20.252Z,95699.91
2022-11-01T10:43:49.169Z,95692.94
2022-11-01T10:46:19.989Z,95696.16
2022-11-01T10:48:58.867Z,95693.72
2022-11-01T10:51:29.185Z,95694.81
2022-11-01T10:53:58.928Z,95688.59
2022-11-01T10:56:32.277Z,95678.88
2022-11-01T10:59:00.283Z,95670.53
2022-11-01T11:01:29.540Z,95674.28
2022-11-01T11:03:59.185Z,95667.81
2022-11-01T11:06:26.186Z,95665.88
2022-11-01T11:08:54.572Z,95672.31
2022-11-01T11:11:26.760Z,95665.03
2022-11-01T11:13:54.900Z,95664.75
2022-11-01T11:16:37.918Z,95658.81
2022-11-01T11:19:19.275Z,95667.69
2022-11-01T11:21:50.545Z,95653.38
2022-11-01T11:24:19.905Z,95657.69
2022-11-01T11:26:52.974Z,95651.47
2022-11-01T11:29:40.088Z,95654.97
2022-11-01T11:32:14.027Z,95650.88
2022-11-01T11:34:41.492Z,95650.06
2022-11-01T11:37:15.062Z,95645.97
2022-11-01T11:39:42.246Z,95644.31
2022-11-01T11:42:15.681Z,95641.88
2022-11-01T11:44:44.926Z,95635.34
2022-11-01T11:47:17.919Z,95630.72
2022-11-01T11:49:45.244Z,95637.66
2022-11-01T11:52:16.346Z,95633.00
2022-11-01T11:54:44.076Z,95638.88
2022-11-01T11:57:14.410Z,95626.97
2022-11-01T11:59:41.600Z,95628.31
2022-11-01T12:02:16.848Z,95624.78
2022-11-01T12:04:58.152Z,95622.53
2022-11-01T12:07:30.865Z,95624.69
2022-11-01T12:10:02.454Z,95608.97
2022-11-01T12:12:31.544Z,95610.31
2022-11-01T12:15:00.090Z,95609.50
2022-11-01T12:17:27.092Z,95608.09
2022-11-01T12:20:09.799Z,95610.25
2022-11-01T12:22:38.451Z,95601.56
2022-11-01T12:25:08.308Z,95597.25
2022-11-01T12:27:36.131Z,95582.94
2022-11-01T12:30:10.933Z,95589.69
2022-11-01T12:32:47.748Z,95587.78
2022-11-01T12:35:21.270Z,95586.44
2022-11-01T12:37:57.463Z,95588.84
2022-11-01T12:40:28.628Z,95593.97
2022-11-01T12:43:01.617Z,95580.97
2022-11-01T12:45:43.077Z,95587.69
2022-11-01T12:48:12.491Z,95587.91
2022-11-01T12:50:48.074Z,95587.78
2022-11-01T12:53:17.598Z,95579.81
2022-11-01T12:55:44.429Z,95575.75
2022-11-01T12:58:16.534Z,95574.94
2022-11-01T13:00:49.357Z,95576.31
2022-11-01T13:03:16.079Z,95582.00
2022-11-01T13:05:42.724Z,95569.00
2022-11-01T13:08:12.503Z,95570.09
2022-11-01T13:13:23.924Z,95571.66
2022-11-01T13:15:56.127Z,95570.78
2022-11-01T13:18:41.573Z,95573.16
2022-11-01T13:21:20.505Z,95569.25
2022-11-01T13:24:22.876Z,95565.69
2022-11-01T13:26:56.533Z,95577.84
2022-11-01T13:29:29.197Z,95565.94
2022-11-01T13:32:14.759Z,95564.03
2022-11-01T13:34:50.692Z,95571.34
2022-11-01T13:37:18.267Z,95571.34
2022-11-01T13:40:03.579Z,95566.75
2022-11-01T13:42:38.633Z,95569.72
2022-11-01T13:45:22.299Z,95562.41
2022-11-01T13:48:07.726Z,95561.31
2022-11-01T13:50:37.582Z,95568.06
2022-11-01T13:53:13.247Z,95562.38
2022-11-01T13:55:47.227Z,95562.56
2022-11-01T13:58:24.210Z,95551.72
2022-11-01T14:00:52.284Z,95551.72
2022-11-01T14:03:21.413Z,95549.03
2022-11-01T14:06:11.433Z,95547.13
2022-11-01T14:08:39.301Z,95551.16
2022-11-01T14:11:06.567Z,95550.06
2022-11-01T14:13:38.873Z,95542.75
2022-11-01T14:16:14.726Z,95545.97
2022-11-01T14:18:59.917Z,95537.03
2022-11-01T14:21:32.034Z,95547.06
2022-11-01T14:24:22.469Z,95544.34
2022-11-01T14:27:17.679Z,95547.63
2022-11-01T14:29:44.473Z,95549.03
2022-11-01T14:32:11.911Z,95547.41
2022-11-01T14:34:39.621Z,95538.75
2022-11-01T14:37:14.765Z,95506.06
2022-11-01T14:39:57.779Z,95543.22
2022-11-01T14:42:29.578Z,95536.75
2022-11-01T14:44:58.659Z,95541.97
2022-11-01T14:47:35.916Z,95546.88
2022-11-01T14:50:07.782Z,95543.94
2022-11-01T14:52:47.231Z,95543.41
2022-11-01T14:55:20.780Z,95550.81
2022-11-01T14:57:49.162Z,95546.75
2022-11-01T15:00:23.794Z,95546.81
2022-11-01T15:02:52.470Z,95550.41
2022-11-01T15:05:19.672Z,95543.13
2022-11-01T15:07:51.919Z,95549.66
2022-11-01T15:10:18.907Z,95543.22
2022-11-01T15:12:48.487Z,95547.88
2022-11-01T15:15:30.127Z,95545.22
2022-11-01T15:17:58.895Z,95545.84
2022-11-01T15:20:30.302Z,95540.47
2022-11-01T15:22:59.203Z,95548.66
2022-11-01T15:25:27.431Z,95550.59
2022-11-01T15:27:55.834Z,95549.84
2022-11-01T15:30:28.404Z,95547.19
2022-11-01T15:33:15.403Z,95552.41
2022-11-01T15:35:42.463Z,95554.84
2022-11-01T15:38:20.591Z,95552.47
2022-11-01T15:40:50.586Z,95561.44
2022-11-01T15:43:21.842Z,95563.09
2022-11-01T15:45:51.371Z,95557.69
2022-11-01T15:48:21.577Z,95566.91
2022-11-01T15:50:53.480Z,95565.56
2022-11-01T15:53:22.981Z,95568.56
2022-11-01T15:55:51.948Z,95569.41
2022-11-01T15:58:22.594Z,95565.94
2022-11-01T16:01:13.188Z,95568.41
2022-11-01T16:03:45.088Z,95571.69
2022-11-01T16:06:13.937Z,95572.53
2022-11-01T16:08:50.740Z,95569.34
2022-11-01T16:11:23.141Z,95576.66
2022-11-01T16:13:51.757Z,95572.88
2022-11-01T16:16:18.648Z,95578.34
2022-11-01T16:18:45.762Z,95581.56
2022-11-01T16:21:18.897Z,95584.81
2022-11-01T16:24:09.559Z,95586.47
2022-11-01T16:26:55.379Z,95591.38
2022-11-01T16:29:38.261Z,95582.19
2022-11-01T16:32:15.817Z,95585.44
2022-11-01T16:34:42.692Z,95579.81
2022-11-01T16:37:18.553Z,95589.25
2022-11-01T16:39:47.046Z,95593.31
2022-11-01T16:42:13.749Z,95591.69
2022-11-01T16:44:40.553Z,95596.56
2022-11-01T16:47:07.372Z,95591.44
2022-11-01T16:49:34.293Z,95598.44
2022-11-01T16:52:01.358Z,95594.41
2022-11-01T16:54:28.699Z,95601.94
2022-11-01T16:56:57.846Z,95604.13
2022-11-01T16:59:24.649Z,95605.50
2022-11-01T17:01:55.796Z,95608.72
2022-11-01T17:04:23.196Z,95607.13
2022-11-01T17:06:50.370Z,95606.56
2022-11-01T17:09:18.241Z,95607.13
2022-11-01T17:11:50.853Z,95607.69
2022-11-01T17:14:19.121Z,95606.59
2022-11-01T17:16:47.639Z,95614.41
2022-11-01T17:19:31.762Z,95617.13
2022-11-01T17:22:01.219Z,95613.09
2022-11-01T17:24:28.672Z,95612.00
2022-11-01T17:26:59.009Z,95616.88
2022-11-01T17:29:26.197Z,95612.81
2022-11-01T17:31:52.905Z,95615.28
2022-11-01T17:34:19.877Z,95613.09
2022-11-01T17:36:48.526Z,95607.44
2022-11-01T17:39:15.308Z,95611.47
2022-11-01T17:41:42.583Z,95610.94
2022-11-01T17:44:11.047Z,95614.69
2022-11-01T17:46:38.240Z,95625.50
2022-11-01T17:49:05.725Z,95624.44
2022-11-01T17:51:32.537Z,95610.69
2022-11-01T17:53:59.517Z,95617.69
2022-11-01T17:56:26.544Z,95623.91
2022-11-01T17:58:53.855Z,95620.91
2022-11-01T18:01:21.516Z,95616.88
2022-11-01T18:03:49.813Z,95626.03
2022-11-01T18:06:17.082Z,95623.59
2022-11-01T18:08:46.129Z,95623.34
2022-11-01T18:11:23.806Z,95626.00
2022-11-01T18:13:59.712Z,95626.53
2022-11-01T18:16:43.404Z,95628.13
2022-11-01T18:19:29.341Z,95628.41
2022-11-01T18:22:01.275Z,95629.22
2022-11-01T18:24:36.880Z,95628.13
2022-11-01T18:27:10.826Z,95634.84
2022-11-01T18:29:40.256Z,95625.69
2022-11-01T18:32:16.344Z,95635.09
2022-11-01T18:34:46.889Z,95629.44
2022-11-01T18:37:16.467Z,95628.63
2022-11-01T18:39:51.423Z,95631.31
2022-11-01T18:42:18.294Z,95638.03
2022-11-01T18:44:45.061Z,95643.41
2022-11-01T18:47:23.388Z,95645.84
2022-11-01T18:49:50.793Z,95647.19
2022-11-01T18:52:19.269Z,95649.84
2022-11-01T18:54:56.083Z,95652.81
2022-11-01T18:57:24.889Z,95650.63
2022-11-01T18:59:53.020Z,95654.66
2022-11-01T19:02:23.350Z,95661.38
2022-11-01T19:04:51.355Z,95663.53
2022-11-01T19:07:29.091Z,95660.81
2022-11-01T19:10:13.253Z,95669.44
2022-11-01T19:12:43.032Z,95666.22
2022-11-01T19:15:11.554Z,95660.28
2022-11-01T19:17:39.972Z,95659.97
2022-11-01T19:20:33.358Z,95657.28
2022-11-01T19:23:02.082Z,95662.13
2022-11-01T19:25:30.567Z,95658.88
2022-11-01T19:27:59.442Z,95661.03
2022-11-01T19:30:28.589Z,95667.50
2022-11-01T19:32:58.271Z,95664.53
2022-11-01T19:35:25.430Z,95667.19
2022-11-01T19:37:53.888Z,95672.03
2022-11-01T19:40:28.463Z,95666.09
2022-11-01T19:42:57.350Z,95672.00
2022-11-01T19:45:30.105Z,95672.00
2022-11-01T19:47:58.403Z,95668.50
2022-11-01T19:50:25.166Z,95672.53
2022-11-01T19:52:53.206Z,95674.66
2022-11-01T19:55:41.711Z,95671.44
2022-11-01T19:58:25.133Z,95675.69
2022-11-01T20:00:58.232Z,95679.19
2022-11-01T20:03:38.868Z,95682.94
2022-11-01T20:06:16.295Z,95678.84
2022-11-01T20:08:45.196Z,95681.50
2022-11-01T20:11:13.161Z,95683.88
2022-11-01T20:13:40.072Z,95686.31
2022-11-01T20:16:07.017Z,95686.00
2022-11-01T20:18:34.031Z,95688.66
2022-11-01T20:21:03.022Z,95680.06
2022-11-01T20:23:30.261Z,95686.19
2022-11-01T20:25:56.946Z,95676.75
2022-11-01T20:28:23.778Z,95682.13
2022-11-01T20:30:50.658Z,95687.78
2022-11-01T20:33:17.659Z,95679.69
2022-11-01T20:35:44.629Z,95679.06
2022-11-01T20:38:11.414Z,95686.34
2022-11-01T20:40:38.225Z,95695.47
2022-11-01T20:43:06.488Z,95682.28
2022-11-01T20:45:35.162Z,95686.28
2022-11-01T20:48:02.393Z,95684.94
2022-11-01T20:50:29.080Z,95686.50
2022-11-01T20:52:56.095Z,95686.44
2022-11-01T20:55:23.025Z,95690.44
2022-11-01T20:57:51.049Z,95686.97
2022-11-01T21:00:18.835Z,95687.50
2022-11-01T21:02:46.117Z,95690.38
2022-11-01T21:05:23.741Z,95688.75
2022-11-01T21:07:53.837Z,95685.25
2022-11-01T21:10:29.766Z,95689.53
2022-11-01T21:12:56.568Z,95686.28
2022-11-01T21:15:31.305Z,95688.66
2022-11-01T21:18:17.940Z,95690.53
2022-11-01T21:20:45.895Z,95687.28
2022-11-01T21:23:15.779Z,95690.22
2022-11-01T21:25:45.974Z,95681.88
2022-11-01T21:28:32.613Z,95685.63
2022-11-01T21:31:12.834Z,95688.56
2022-11-01T21:33:41.109Z,95694.19
2022-11-01T21:36:13.620Z,95687.44
2022-11-01T21:38:41.374Z,95687.94
2022-11-01T21:41:19.514Z,95685.81
2022-11-01T21:43:46.220Z,95687.94
2022-11-01T21:46:23.656Z,95680.13
2022-11-01T21:48:52.717Z,95681.75
2022-11-01T21:51:19.424Z,95680.41
2022-11-01T21:53:46.241Z,95680.34
2022-11-01T21:56:12.906Z,95688.91
2022-11-01T21:58:39.660Z,95671.38
2022-11-01T22:01:06.690Z,95683.19
2022-11-01T22:03:33.894Z,95667.53
2022-11-01T22:06:00.586Z,95682.31
2022-11-01T22:08:27.469Z,95682.56
2022-11-01T22:10:54.174Z,95682.00
2022-11-01T22:13:20.859Z,95683.06
2022-11-01T22:15:47.651Z,95675.75
2022-11-01T22:18:14.411Z,95674.66
2022-11-01T22:20:41.831Z,95672.22
2022-11-01T22:23:08.847Z,95679.47
2022-11-01T22:25:35.687Z,95677.28
2022-11-01T22:28:02.887Z,95665.41
2022-11-01T22:30:29.849Z,95678.28
2022-11-01T22:32:56.908Z,95679.34
2022-11-01T22:35:24.345Z,95677.16
2022-11-01T22:37:51.375Z,95681.72
2022-11-01T22:40:18.884Z,95671.47
2022-11-01T22:42:47.837Z,95677.59
2022-11-01T22:45:16.288Z,95675.66
2022-11-01T22:47:43.007Z,95668.91
2022-11-01T22:50:12.628Z,95676.41
2022-11-01T22:52:43.234Z,95670.47
2022-11-01T22:55:10.094Z,95671.28
2022-11-01T22:57:43.640Z,95668.84
2022-11-01T23:00:27.685Z,95665.88
2022-11-01T23:03:02.846Z,95658.06
2022-11-01T23:05:30.251Z,95660.69
2022-11-01T23:07:59.548Z,95660.91
2022-11-01T23:10:26.920Z,95661.41
2022-11-01T23:13:21.736Z,95664.09
2022-11-01T23:15:48.640Z,95664.84
2022-11-01T23:18:15.284Z,95659.75
2022-11-01T23:20:42.877Z,95663.72
2022-11-01T23:23:14.093Z,95659.66
2022-11-01T23:25:41.356Z,95661.78
2022-11-01T23:28:08.199Z,95654.50
2022-11-01T23:30:35.101Z,95659.28
2022-11-01T23:33:02.166Z,95658.13
2022-11-01T23:35:29.186Z,95657.56
2022-11-01T23:37:57.173Z,95659.69
2022-11-01T23:40:29.788Z,95655.94
2022-11-01T23:42:56.703Z,95661.06
2022-11-01T23:45:32.487Z,95661.00
2022-11-01T23:47:59.521Z,95666.38
2022-11-01T23:50:30.544Z,95664.19
2022-11-01T23:53:03.665Z,95663.84
2022-11-01T23:55:31.684Z,95657.91
2022-11-01T23:58:00.036Z,95663.53
